sensor_id;sensor_type;location;lat;lon;timestamp;pressure;altitude;pressure_sealevel;temperature;humidity
84271;BME280;74614;50.032;19.566;2024-03-02T00:00:29;97995.18;;;7.72;69.53
84271;BME280;74614;50.032;19.566;2024-03-02T00:02:40;97997.61;;;7.74;69.45
84271;BME280;74614;50.032;19.566;2024-03-02T00:05:23;97999.67;;;7.76;69.34
84271;BME280;74614;50.032;19.566;2024-03-02T00:06:27;98002.50;;;7.79;69.21
84271;BME280;74614;50.032;19.566;2024-03-02T00:08:30;98006.55;;;7.82;69.25
84271;BME280;74614;50.032;19.566;2024-03-02T00:10:39;98001.81;;;7.81;69.18
84271;BME280;74614;50.032;19.566;2024-03-02T00:13:31;97995.02;;;7.75;69.38
84271;BME280;74614;50.032;19.566;2024-03-02T00:15:42;97995.89;;;7.75;69.11
84271;BME280;74614;50.032;19.566;2024-03-02T00:18:32;97991.56;;;7.69;69.30
84271;BME280;74614;50.032;19.566;2024-03-02T00:20:31;97990.86;;;7.58;69.38
84271;BME280;74614;50.032;19.566;2024-03-02T00:22:31;97995.71;;;7.42;69.89
84271;BME280;74614;50.032;19.566;2024-03-02T00:24:32;97999.47;;;7.38;70.44
84271;BME280;74614;50.032;19.566;2024-03-02T00:26:28;98000.27;;;7.42;69.82
84271;BME280;74614;50.032;19.566;2024-03-02T00:28:28;98000.63;;;7.45;69.68
84271;BME280;74614;50.032;19.566;2024-03-02T00:30:51;98002.76;;;7.48;69.73
84271;BME280;74614;50.032;19.566;2024-03-02T00:33:21;98007.55;;;7.38;70.12
84271;BME280;74614;50.032;19.566;2024-03-02T00:35:27;98000.61;;;7.41;69.84
84271;BME280;74614;50.032;19.566;2024-03-02T00:37:22;98001.21;;;7.41;69.80
84271;BME280;74614;50.032;19.566;2024-03-02T00:39:29;97999.01;;;7.31;70.22
84271;BME280;74614;50.032;19.566;2024-03-02T00:42:28;97996.86;;;7.30;70.06
84271;BME280;74614;50.032;19.566;2024-03-02T00:44:29;97997.55;;;7.33;70.00
84271;BME280;74614;50.032;19.566;2024-03-02T00:46:29;98005.00;;;7.42;69.95
84271;BME280;74614;50.032;19.566;2024-03-02T00:48:27;98004.41;;;7.44;69.78
84271;BME280;74614;50.032;19.566;2024-03-02T00:50:27;98001.67;;;7.44;69.83
84271;BME280;74614;50.032;19.566;2024-03-02T00:52:29;97997.84;;;7.46;69.77
84271;BME280;74614;50.032;19.566;2024-03-02T00:54:30;97993.32;;;7.50;69.68
84271;BME280;74614;50.032;19.566;2024-03-02T00:56:29;97990.92;;;7.55;69.46
84271;BME280;74614;50.032;19.566;2024-03-02T00:58:29;97985.34;;;7.56;69.47
84271;BME280;74614;50.032;19.566;2024-03-02T01:00:48;97984.07;;;7.61;69.19
84271;BME280;74614;50.032;19.566;2024-03-02T01:03:38;97980.10;;;7.66;69.11
84271;BME280;74614;50.032;19.566;2024-03-02T01:06:31;97976.59;;;7.69;69.05
84271;BME280;74614;50.032;19.566;2024-03-02T01:08:28;97975.22;;;7.69;69.07
84271;BME280;74614;50.032;19.566;2024-03-02T01:10:34;97973.78;;;7.76;68.73
84271;BME280;74614;50.032;19.566;2024-03-02T01:12:28;97965.23;;;7.78;68.67
84271;BME280;74614;50.032;19.566;2024-03-02T01:14:28;97961.91;;;7.75;68.69
84271;BME280;74614;50.032;19.566;2024-03-02T01:16:30;97958.80;;;7.74;68.71
84271;BME280;74614;50.032;19.566;2024-03-02T01:18:28;97956.47;;;7.72;68.36
84271;BME280;74614;50.032;19.566;2024-03-02T01:20:28;97959.04;;;7.65;68.03
84271;BME280;74614;50.032;19.566;2024-03-02T01:22:37;97962.03;;;7.56;68.16
84271;BME280;74614;50.032;19.566;2024-03-02T01:24:35;97959.48;;;7.61;68.50
84271;BME280;74614;50.032;19.566;2024-03-02T01:27:26;97967.56;;;7.81;68.24
84271;BME280;74614;50.032;19.566;2024-03-02T01:29:25;97973.68;;;7.83;68.13
84271;BME280;74614;50.032;19.566;2024-03-02T01:31:27;97965.29;;;7.94;67.98
84271;BME280;74614;50.032;19.566;2024-03-02T01:34:29;97961.05;;;8.00;67.67
84271;BME280;74614;50.032;19.566;2024-03-02T01:36:29;97959.68;;;8.05;67.99
84271;BME280;74614;50.032;19.566;2024-03-02T01:38:30;97958.98;;;8.03;68.00
84271;BME280;74614;50.032;19.566;2024-03-02T01:40:29;97957.60;;;7.95;68.22
84271;BME280;74614;50.032;19.566;2024-03-02T01:42:27;97958.05;;;7.92;68.14
84271;BME280;74614;50.032;19.566;2024-03-02T01:44:28;97960.18;;;7.84;68.12
84271;BME280;74614;50.032;19.566;2024-03-02T01:46:28;97952.60;;;7.81;68.38
84271;BME280;74614;50.032;19.566;2024-03-02T01:48:29;97952.86;;;7.82;68.27
84271;BME280;74614;50.032;19.566;2024-03-02T01:50:32;97951.67;;;7.83;68.42
84271;BME280;74614;50.032;19.566;2024-03-02T01:52:31;97947.28;;;7.85;68.42
84271;BME280;74614;50.032;19.566;2024-03-02T01:54:29;97946.60;;;7.88;68.50
84271;BME280;74614;50.032;19.566;2024-03-02T01:56:31;97951.85;;;7.91;68.39
84271;BME280;74614;50.032;19.566;2024-03-02T01:58:30;97949.87;;;7.90;68.51
84271;BME280;74614;50.032;19.566;2024-03-02T02:00:32;97946.51;;;7.91;68.42
84271;BME280;74614;50.032;19.566;2024-03-02T02:02:31;97948.74;;;7.98;68.51
84271;BME280;74614;50.032;19.566;2024-03-02T02:04:35;97941.09;;;8.04;68.16
84271;BME280;74614;50.032;19.566;2024-03-02T02:06:29;97941.69;;;8.04;68.31
84271;BME280;74614;50.032;19.566;2024-03-02T02:08:29;97939.79;;;8.00;68.49
84271;BME280;74614;50.032;19.566;2024-03-02T02:10:31;97936.94;;;7.96;68.35
84271;BME280;74614;50.032;19.566;2024-03-02T02:12:30;97932.47;;;7.98;68.40
84271;BME280;74614;50.032;19.566;2024-03-02T02:14:27;97938.24;;;8.00;68.39
84271;BME280;74614;50.032;19.566;2024-03-02T02:16:28;97940.57;;;7.99;68.31
84271;BME280;74614;50.032;19.566;2024-03-02T02:18:27;97939.71;;;8.00;68.27
84271;BME280;74614;50.032;19.566;2024-03-02T02:20:27;97935.22;;;8.00;68.47
84271;BME280;74614;50.032;19.566;2024-03-02T02:22:29;97935.64;;;8.11;68.05
84271;BME280;74614;50.032;19.566;2024-03-02T02:24:29;97933.18;;;8.05;67.97
84271;BME280;74614;50.032;19.566;2024-03-02T02:26:37;97932.40;;;8.05;67.99
84271;BME280;74614;50.032;19.566;2024-03-02T02:29:28;97937.31;;;8.09;68.13
84271;BME280;74614;50.032;19.566;2024-03-02T02:31:41;97936.08;;;8.13;68.04
84271;BME280;74614;50.032;19.566;2024-03-02T02:34:28;97926.46;;;7.93;68.60
84271;BME280;74614;50.032;19.566;2024-03-02T02:36:30;97925.44;;;7.88;68.31
84271;BME280;74614;50.032;19.566;2024-03-02T02:38:32;97934.43;;;7.68;68.79
84271;BME280;74614;50.032;19.566;2024-03-02T02:41:20;97932.45;;;7.63;69.04
84271;BME280;74614;50.032;19.566;2024-03-02T02:43:28;97924.12;;;7.68;69.04
84271;BME280;74614;50.032;19.566;2024-03-02T02:46:31;97922.14;;;7.67;68.96
84271;BME280;74614;50.032;19.566;2024-03-02T02:48:28;97919.30;;;7.60;69.15
84271;BME280;74614;50.032;19.566;2024-03-02T02:50:31;97921.29;;;7.60;69.27
84271;BME280;74614;50.032;19.566;2024-03-02T02:52:32;97924.72;;;7.57;69.29
84271;BME280;74614;50.032;19.566;2024-03-02T02:54:30;97923.41;;;7.63;69.32
84271;BME280;74614;50.032;19.566;2024-03-02T02:56:29;97927.73;;;7.69;68.99
84271;BME280;74614;50.032;19.566;2024-03-02T02:58:29;97923.42;;;7.64;69.20
84271;BME280;74614;50.032;19.566;2024-03-02T03:00:32;97925.50;;;7.68;69.07
84271;BME280;74614;50.032;19.566;2024-03-02T03:02:32;97919.80;;;7.66;69.24
84271;BME280;74614;50.032;19.566;2024-03-02T03:04:28;97920.24;;;7.68;69.14
84271;BME280;74614;50.032;19.566;2024-03-02T03:06:30;97926.87;;;7.68;69.25
84271;BME280;74614;50.032;19.566;2024-03-02T03:08:34;97926.73;;;7.75;68.97
84271;BME280;74614;50.032;19.566;2024-03-02T03:10:36;97935.06;;;7.86;68.79
84271;BME280;74614;50.032;19.566;2024-03-02T03:12:28;97933.00;;;7.90;68.55
84271;BME280;74614;50.032;19.566;2024-03-02T03:14:29;97935.48;;;7.86;68.76
84271;BME280;74614;50.032;19.566;2024-03-02T03:16:33;97934.87;;;7.81;68.84
84271;BME280;74614;50.032;19.566;2024-03-02T03:18:29;97937.13;;;7.74;69.00
84271;BME280;74614;50.032;19.566;2024-03-02T03:20:32;97935.39;;;7.72;68.92
84271;BME280;74614;50.032;19.566;2024-03-02T03:22:27;97934.18;;;7.70;69.13
84271;BME280;74614;50.032;19.566;2024-03-02T03:24:31;97934.63;;;7.72;69.00
84271;BME280;74614;50.032;19.566;2024-03-02T03:26:28;97924.72;;;7.72;68.90
84271;BME280;74614;50.032;19.566;2024-03-02T03:28:34;97924.72;;;7.71;68.88
84271;BME280;74614;50.032;19.566;2024-03-02T03:30:28;-3200.00;;;0.00;0.00
84271;BME280;74614;50.032;19.566;2024-03-02T03:32:34;97922.66;;;7.81;68.82
84271;BME280;74614;50.032;19.566;2024-03-02T03:34:32;97916.74;;;7.89;68.67
84271;BME280;74614;50.032;19.566;2024-03-02T03:36:31;97911.16;;;7.94;68.51
84271;BME280;74614;50.032;19.566;2024-03-02T03:38:27;97930.93;;;8.07;68.49
84271;BME280;74614;50.032;19.566;2024-03-02T03:40:29;97932.14;;;8.06;68.48
84271;BME280;74614;50.032;19.566;2024-03-02T03:42:28;97924.48;;;8.09;68.22
84271;BME280;74614;50.032;19.566;2024-03-02T03:44:26;97926.27;;;8.18;68.32
84271;BME280;74614;50.032;19.566;2024-03-02T03:46:34;97923.60;;;8.19;68.12
84271;BME280;74614;50.032;19.566;2024-03-02T03:48:27;97915.51;;;8.19;67.96
84271;BME280;74614;50.032;19.566;2024-03-02T03:50:29;97926.74;;;8.25;67.95
84271;BME280;74614;50.032;19.566;2024-03-02T03:52:29;97925.88;;;8.25;67.77
84271;BME280;74614;50.032;19.566;2024-03-02T03:54:32;97926.05;;;8.23;67.88
84271;BME280;74614;50.032;19.566;2024-03-02T03:56:30;97921.11;;;8.20;67.88
84271;BME280;74614;50.032;19.566;2024-03-02T03:58:32;97930.58;;;8.22;67.76
84271;BME280;74614;50.032;19.566;2024-03-02T04:00:32;-3200.00;;;0.00;0.00
84271;BME280;74614;50.032;19.566;2024-03-02T04:02:31;97934.53;;;8.16;67.63
84271;BME280;74614;50.032;19.566;2024-03-02T04:04:28;97931.96;;;8.09;67.73
84271;BME280;74614;50.032;19.566;2024-03-02T04:06:30;97929.91;;;8.03;67.70
84271;BME280;74614;50.032;19.566;2024-03-02T04:08:27;97922.74;;;7.95;67.71
84271;BME280;74614;50.032;19.566;2024-03-02T04:10:29;97928.01;;;7.91;67.80
84271;BME280;74614;50.032;19.566;2024-03-02T04:12:28;97933.86;;;7.73;67.98
84271;BME280;74614;50.032;19.566;2024-03-02T04:14:27;97930.90;;;7.64;68.27
84271;BME280;74614;50.032;19.566;2024-03-02T04:16:28;97929.11;;;7.63;68.29
84271;BME280;74614;50.032;19.566;2024-03-02T04:18:33;97934.90;;;7.76;67.90
84271;BME280;74614;50.032;19.566;2024-03-02T04:20:28;97936.86;;;7.71;67.93
84271;BME280;74614;50.032;19.566;2024-03-02T04:22:26;97931.79;;;7.75;67.85
84271;BME280;74614;50.032;19.566;2024-03-02T04:24:29;97930.92;;;7.80;67.81
84271;BME280;74614;50.032;19.566;2024-03-02T04:26:30;97933.24;;;7.83;67.57
84271;BME280;74614;50.032;19.566;2024-03-02T04:28:31;97931.00;;;7.80;67.46
84271;BME280;74614;50.032;19.566;2024-03-02T04:30:29;97921.62;;;7.80;67.31
84271;BME280;74614;50.032;19.566;2024-03-02T04:32:29;97926.52;;;7.67;66.77
84271;BME280;74614;50.032;19.566;2024-03-02T04:34:30;97945.34;;;7.54;67.31
84271;BME280;74614;50.032;19.566;2024-03-02T04:36:32;97940.66;;;7.37;67.63
84271;BME280;74614;50.032;19.566;2024-03-02T04:38:28;97946.65;;;7.31;67.76
84271;BME280;74614;50.032;19.566;2024-03-02T04:40:31;97948.98;;;7.22;67.47
84271;BME280;74614;50.032;19.566;2024-03-02T04:42:35;97947.55;;;7.10;67.40
84271;BME280;74614;50.032;19.566;2024-03-02T04:45:20;97955.73;;;6.99;68.05
84271;BME280;74614;50.032;19.566;2024-03-02T04:47:29;97958.07;;;6.96;67.81
84271;BME280;74614;50.032;19.566;2024-03-02T04:50:27;97953.37;;;6.88;68.25
84271;BME280;74614;50.032;19.566;2024-03-02T04:52:28;97954.88;;;6.93;67.74
84271;BME280;74614;50.032;19.566;2024-03-02T04:54:27;97957.62;;;6.93;67.55
84271;BME280;74614;50.032;19.566;2024-03-02T04:57:00;97958.70;;;6.87;67.71
84271;BME280;74614;50.032;19.566;2024-03-02T04:59:36;97948.90;;;6.88;67.93
84271;BME280;74614;50.032;19.566;2024-03-02T05:01:28;97951.98;;;6.86;68.03
84271;BME280;74614;50.032;19.566;2024-03-02T05:03:35;97941.73;;;6.76;67.99
84271;BME280;74614;50.032;19.566;2024-03-02T05:06:32;97947.94;;;6.96;67.90
84271;BME280;74614;50.032;19.566;2024-03-02T05:08:29;97950.71;;;6.88;66.95
84271;BME280;74614;50.032;19.566;2024-03-02T05:10:41;97942.42;;;6.65;67.54
84271;BME280;74614;50.032;19.566;2024-03-02T05:13:28;97948.13;;;6.56;68.28
84271;BME280;74614;50.032;19.566;2024-03-02T05:15:34;97960.22;;;6.52;68.54
84271;BME280;74614;50.032;19.566;2024-03-02T05:17:28;97963.29;;;6.46;68.52
84271;BME280;74614;50.032;19.566;2024-03-02T05:19:35;97967.58;;;6.37;68.76
84271;BME280;74614;50.032;19.566;2024-03-02T05:21:30;97964.66;;;6.37;69.01
84271;BME280;74614;50.032;19.566;2024-03-02T05:23:41;97967.36;;;6.54;68.83
84271;BME280;74614;50.032;19.566;2024-03-02T05:26:28;97957.40;;;6.56;68.66
84271;BME280;74614;50.032;19.566;2024-03-02T05:28:29;97959.68;;;6.50;68.72
84271;BME280;74614;50.032;19.566;2024-03-02T05:30:27;97964.59;;;6.52;68.67
84271;BME280;74614;50.032;19.566;2024-03-02T05:32:27;97969.98;;;6.49;68.84
84271;BME280;74614;50.032;19.566;2024-03-02T05:34:51;97975.39;;;6.59;68.70
84271;BME280;74614;50.032;19.566;2024-03-02T05:37:30;97972.71;;;6.72;68.54
84271;BME280;74614;50.032;19.566;2024-03-02T05:39:35;97973.44;;;6.78;68.60
84271;BME280;74614;50.032;19.566;2024-03-02T05:41:31;97975.55;;;6.74;68.76
84271;BME280;74614;50.032;19.566;2024-03-02T05:43:36;97967.30;;;6.75;69.01
84271;BME280;74614;50.032;19.566;2024-03-02T05:46:31;97981.07;;;6.75;68.80
84271;BME280;74614;50.032;19.566;2024-03-02T05:48:27;97979.54;;;6.78;68.70
84271;BME280;74614;50.032;19.566;2024-03-02T05:50:27;97989.50;;;6.82;69.00
84271;BME280;74614;50.032;19.566;2024-03-02T05:52:28;97991.83;;;6.95;68.62
84271;BME280;74614;50.032;19.566;2024-03-02T05:54:29;97987.87;;;6.77;68.96
84271;BME280;74614;50.032;19.566;2024-03-02T05:56:26;97987.75;;;6.73;68.91
84271;BME280;74614;50.032;19.566;2024-03-02T05:58:59;97991.13;;;6.63;68.74
84271;BME280;74614;50.032;19.566;2024-03-02T06:01:40;97995.99;;;6.58;68.88
84271;BME280;74614;50.032;19.566;2024-03-02T06:03:37;97978.82;;;6.45;69.12
84271;BME280;74614;50.032;19.566;2024-03-02T06:06:30;97991.28;;;6.60;69.09
84271;BME280;74614;50.032;19.566;2024-03-02T06:08:28;97991.90;;;6.63;69.04
84271;BME280;74614;50.032;19.566;2024-03-02T06:10:31;97976.54;;;6.64;69.06
84271;BME280;74614;50.032;19.566;2024-03-02T06:12:27;97983.75;;;6.77;69.18
84271;BME280;74614;50.032;19.566;2024-03-02T06:14:28;97980.80;;;6.91;68.96
84271;BME280;74614;50.032;19.566;2024-03-02T06:16:26;97979.95;;;6.99;68.89
84271;BME280;74614;50.032;19.566;2024-03-02T06:18:26;97980.96;;;7.05;68.86
84271;BME280;74614;50.032;19.566;2024-03-02T06:21:14;97985.48;;;7.01;68.92
84271;BME280;74614;50.032;19.566;2024-03-02T06:23:34;97990.53;;;6.98;69.02
84271;BME280;74614;50.032;19.566;2024-03-02T06:25:27;97989.33;;;6.99;69.09
84271;BME280;74614;50.032;19.566;2024-03-02T06:27:35;97992.25;;;7.11;68.95
84271;BME280;74614;50.032;19.566;2024-03-02T06:29:32;97987.32;;;7.31;68.77
84271;BME280;74614;50.032;19.566;2024-03-02T06:31:32;97985.48;;;7.43;68.50
84271;BME280;74614;50.032;19.566;2024-03-02T06:33:27;97985.17;;;7.63;68.31
84271;BME280;74614;50.032;19.566;2024-03-02T06:35:39;97978.83;;;7.71;67.97
84271;BME280;74614;50.032;19.566;2024-03-02T06:38:28;97975.29;;;7.57;67.91
84271;BME280;74614;50.032;19.566;2024-03-02T06:40:27;97984.68;;;7.62;68.00
84271;BME280;74614;50.032;19.566;2024-03-02T06:42:29;97986.39;;;7.67;67.98
84271;BME280;74614;50.032;19.566;2024-03-02T06:44:30;97984.41;;;7.60;67.88
84271;BME280;74614;50.032;19.566;2024-03-02T06:46:29;97989.26;;;7.40;68.38
84271;BME280;74614;50.032;19.566;2024-03-02T06:48:29;97986.19;;;7.30;68.65
84271;BME280;74614;50.032;19.566;2024-03-02T06:50:32;97987.57;;;7.30;68.76
84271;BME280;74614;50.032;19.566;2024-03-02T06:52:31;97991.84;;;7.20;69.14
84271;BME280;74614;50.032;19.566;2024-03-02T06:54:27;97991.26;;;7.31;68.92
84271;BME280;74614;50.032;19.566;2024-03-02T06:56:35;97995.07;;;7.33;68.99
84271;BME280;74614;50.032;19.566;2024-03-02T06:58:40;97992.47;;;7.32;68.98
84271;BME280;74614;50.032;19.566;2024-03-02T07:01:31;97998.49;;;7.30;69.10
84271;BME280;74614;50.032;19.566;2024-03-02T07:03:37;97994.83;;;7.36;69.08
84271;BME280;74614;50.032;19.566;2024-03-02T07:05:31;97995.71;;;7.42;69.22
84271;BME280;74614;50.032;19.566;2024-03-02T07:07:35;97996.31;;;7.42;69.30
84271;BME280;74614;50.032;19.566;2024-03-02T07:09:31;98001.40;;;7.49;68.87
84271;BME280;74614;50.032;19.566;2024-03-02T07:11:35;98001.21;;;7.40;69.07
84271;BME280;74614;50.032;19.566;2024-03-02T07:14:28;98010.66;;;7.37;69.42
84271;BME280;74614;50.032;19.566;2024-03-02T07:16:40;98015.49;;;7.47;69.06
84271;BME280;74614;50.032;19.566;2024-03-02T07:19:38;98006.27;;;7.60;69.03
84271;BME280;74614;50.032;19.566;2024-03-02T07:22:27;97998.44;;;7.59;68.90
84271;BME280;74614;50.032;19.566;2024-03-02T07:24:39;98009.07;;;7.52;69.33
84271;BME280;74614;50.032;19.566;2024-03-02T07:27:28;98008.98;;;7.52;69.13
84271;BME280;74614;50.032;19.566;2024-03-02T07:30:30;98010.27;;;7.52;69.11
84271;BME280;74614;50.032;19.566;2024-03-02T07:32:33;98007.60;;;7.52;69.34
84271;BME280;74614;50.032;19.566;2024-03-02T07:34:30;98004.03;;;7.66;69.39
84271;BME280;74614;50.032;19.566;2024-03-02T07:36:28;98011.20;;;7.77;68.90
84271;BME280;74614;50.032;19.566;2024-03-02T07:38:29;98007.86;;;7.88;68.85
84271;BME280;74614;50.032;19.566;2024-03-02T07:40:29;98005.96;;;7.94;68.75
84271;BME280;74614;50.032;19.566;2024-03-02T07:42:29;98009.32;;;7.95;68.69
84271;BME280;74614;50.032;19.566;2024-03-02T07:44:31;98012.01;;;8.02;68.66
84271;BME280;74614;50.032;19.566;2024-03-02T07:46:29;98015.72;;;8.03;68.64
84271;BME280;74614;50.032;19.566;2024-03-02T07:48:28;98015.11;;;8.03;68.67
84271;BME280;74614;50.032;19.566;2024-03-02T07:50:30;98015.61;;;7.99;69.09
84271;BME280;74614;50.032;19.566;2024-03-02T07:52:30;98011.75;;;8.06;68.73
84271;BME280;74614;50.032;19.566;2024-03-02T07:54:28;98021.16;;;8.09;68.96
84271;BME280;74614;50.032;19.566;2024-03-02T07:56:31;98026.98;;;8.12;68.92
84271;BME280;74614;50.032;19.566;2024-03-02T07:58:29;98033.87;;;8.15;68.48
84271;BME280;74614;50.032;19.566;2024-03-02T08:00:29;98032.07;;;8.16;68.34
84271;BME280;74614;50.032;19.566;2024-03-02T08:02:30;98033.45;;;8.17;68.54
84271;BME280;74614;50.032;19.566;2024-03-02T08:04:30;98034.29;;;8.11;68.42
84271;BME280;74614;50.032;19.566;2024-03-02T08:06:34;98028.08;;;7.96;68.62
84271;BME280;74614;50.032;19.566;2024-03-02T08:08:28;98035.08;;;8.12;68.82
84271;BME280;74614;50.032;19.566;2024-03-02T08:10:29;98038.88;;;8.18;68.38
84271;BME280;74614;50.032;19.566;2024-03-02T08:12:32;98036.64;;;8.19;68.42
84271;BME280;74614;50.032;19.566;2024-03-02T08:14:27;98038.45;;;8.20;68.73
84271;BME280;74614;50.032;19.566;2024-03-02T08:16:29;98038.05;;;8.31;68.38
84271;BME280;74614;50.032;19.566;2024-03-02T08:18:31;98042.80;;;8.27;68.29
84271;BME280;74614;50.032;19.566;2024-03-02T08:20:30;98043.32;;;8.23;68.41
84271;BME280;74614;50.032;19.566;2024-03-02T08:22:31;98037.90;;;8.23;68.37
84271;BME280;74614;50.032;19.566;2024-03-02T08:24:28;98037.35;;;8.28;68.28
84271;BME280;74614;50.032;19.566;2024-03-02T08:26:34;98034.27;;;8.36;68.43
84271;BME280;74614;50.032;19.566;2024-03-02T08:28:27;98030.06;;;8.42;68.33
84271;BME280;74614;50.032;19.566;2024-03-02T08:30:32;98028.08;;;8.38;68.22
84271;BME280;74614;50.032;19.566;2024-03-02T08:32:29;98028.49;;;8.35;68.51
84271;BME280;74614;50.032;19.566;2024-03-02T08:34:29;98030.55;;;8.29;68.25
84271;BME280;74614;50.032;19.566;2024-03-02T08:36:31;98030.67;;;8.26;68.56
84271;BME280;74614;50.032;19.566;2024-03-02T08:38:28;98032.98;;;8.34;68.48
84271;BME280;74614;50.032;19.566;2024-03-02T08:40:28;98036.52;;;8.36;68.35
84271;BME280;74614;50.032;19.566;2024-03-02T08:42:27;98039.80;;;8.43;67.87
84271;BME280;74614;50.032;19.566;2024-03-02T08:44:29;98039.08;;;8.43;67.87
84271;BME280;74614;50.032;19.566;2024-03-02T08:46:29;98040.21;;;8.50;67.39
84271;BME280;74614;50.032;19.566;2024-03-02T08:48:32;98040.72;;;8.51;67.64
84271;BME280;74614;50.032;19.566;2024-03-02T08:50:30;98037.55;;;8.42;67.82
84271;BME280;74614;50.032;19.566;2024-03-02T08:52:27;98040.38;;;8.48;67.91
84271;BME280;74614;50.032;19.566;2024-03-02T08:54:26;98041.51;;;8.57;67.75
84271;BME280;74614;50.032;19.566;2024-03-02T08:56:32;98043.14;;;8.58;67.73
84271;BME280;74614;50.032;19.566;2024-03-02T08:58:29;98041.31;;;8.66;67.46
84271;BME280;74614;50.032;19.566;2024-03-02T09:00:33;98045.77;;;8.77;67.35
84271;BME280;74614;50.032;19.566;2024-03-02T09:02:31;98047.58;;;8.76;67.40
84271;BME280;74614;50.032;19.566;2024-03-02T09:04:26;98051.71;;;8.84;67.77
84271;BME280;74614;50.032;19.566;2024-03-02T09:06:28;98053.50;;;8.97;67.59
84271;BME280;74614;50.032;19.566;2024-03-02T09:08:28;98057.12;;;9.05;67.15
84271;BME280;74614;50.032;19.566;2024-03-02T09:10:27;98060.00;;;9.15;67.23
84271;BME280;74614;50.032;19.566;2024-03-02T09:12:29;98059.01;;;9.05;67.13
84271;BME280;74614;50.032;19.566;2024-03-02T09:14:28;98061.16;;;8.97;67.24
84271;BME280;74614;50.032;19.566;2024-03-02T09:16:29;98063.76;;;8.97;67.48
84271;BME280;74614;50.032;19.566;2024-03-02T09:18:32;98067.43;;;9.08;67.28
84271;BME280;74614;50.032;19.566;2024-03-02T09:20:28;98071.81;;;9.17;67.18
84271;BME280;74614;50.032;19.566;2024-03-02T09:22:28;98074.40;;;9.09;67.26
84271;BME280;74614;50.032;19.566;2024-03-02T09:24:28;98075.82;;;8.98;66.89
84271;BME280;74614;50.032;19.566;2024-03-02T09:26:32;98076.77;;;8.98;67.48
84271;BME280;74614;50.032;19.566;2024-03-02T09:28:29;98084.98;;;8.83;67.54
84271;BME280;74614;50.032;19.566;2024-03-02T09:30:28;98085.52;;;8.74;67.82
84271;BME280;74614;50.032;19.566;2024-03-02T09:32:38;98086.27;;;8.78;67.87
84271;BME280;74614;50.032;19.566;2024-03-02T09:35:39;98085.16;;;8.83;67.66
84271;BME280;74614;50.032;19.566;2024-03-02T09:38:28;98088.42;;;8.81;67.77
84271;BME280;74614;50.032;19.566;2024-03-02T09:40:28;98086.63;;;8.69;68.16
84271;BME280;74614;50.032;19.566;2024-03-02T09:42:26;98089.57;;;8.71;68.29
84271;BME280;74614;50.032;19.566;2024-03-02T09:44:30;98091.69;;;8.78;67.97
84271;BME280;74614;50.032;19.566;2024-03-02T09:46:33;98087.73;;;8.77;67.88
84271;BME280;74614;50.032;19.566;2024-03-02T09:48:29;98092.92;;;8.67;68.18
84271;BME280;74614;50.032;19.566;2024-03-02T09:50:26;98093.35;;;8.64;68.39
84271;BME280;74614;50.032;19.566;2024-03-02T09:52:30;98094.98;;;8.61;68.43
84271;BME280;74614;50.032;19.566;2024-03-02T09:54:30;98087.34;;;8.56;68.42
84271;BME280;74614;50.032;19.566;2024-03-02T09:56:30;98094.31;;;8.72;68.52
84271;BME280;74614;50.032;19.566;2024-03-02T09:58:29;98091.28;;;8.84;68.36
84271;BME280;74614;50.032;19.566;2024-03-02T10:00:30;98093.18;;;8.91;68.23
84271;BME280;74614;50.032;19.566;2024-03-02T10:02:34;98093.93;;;8.99;68.43
84271;BME280;74614;50.032;19.566;2024-03-02T10:04:30;98090.90;;;8.97;68.10
84271;BME280;74614;50.032;19.566;2024-03-02T10:06:29;98094.96;;;9.04;68.05
84271;BME280;74614;50.032;19.566;2024-03-02T10:08:43;98087.80;;;9.08;68.30
84271;BME280;74614;50.032;19.566;2024-03-02T10:11:28;98091.73;;;9.11;68.14
84271;BME280;74614;50.032;19.566;2024-03-02T10:14:28;98090.48;;;9.05;68.42
84271;BME280;74614;50.032;19.566;2024-03-02T10:16:27;98089.15;;;9.11;68.20
84271;BME280;74614;50.032;19.566;2024-03-02T10:18:31;98085.75;;;9.24;67.94
84271;BME280;74614;50.032;19.566;2024-03-02T10:20:29;98084.11;;;9.29;68.06
84271;BME280;74614;50.032;19.566;2024-03-02T10:22:28;98078.67;;;9.31;67.69
84271;BME280;74614;50.032;19.566;2024-03-02T10:24:35;98085.61;;;9.21;68.51
84271;BME280;74614;50.032;19.566;2024-03-02T10:26:29;98087.55;;;9.35;68.62
84271;BME280;74614;50.032;19.566;2024-03-02T10:28:28;98084.07;;;9.17;68.65
84271;BME280;74614;50.032;19.566;2024-03-02T10:30:28;98086.26;;;9.27;68.81
84271;BME280;74614;50.032;19.566;2024-03-02T10:32:33;98085.75;;;9.31;68.71
84271;BME280;74614;50.032;19.566;2024-03-02T10:34:35;98086.71;;;9.51;68.53
84271;BME280;74614;50.032;19.566;2024-03-02T10:37:21;98083.79;;;9.71;68.15
84271;BME280;74614;50.032;19.566;2024-03-02T10:39:28;98085.22;;;9.85;68.51
84271;BME280;74614;50.032;19.566;2024-03-02T10:42:28;98080.74;;;9.98;68.54
84271;BME280;74614;50.032;19.566;2024-03-02T10:44:31;98075.58;;;9.92;68.61
84271;BME280;74614;50.032;19.566;2024-03-02T10:46:30;98081.33;;;9.74;68.45
84271;BME280;74614;50.032;19.566;2024-03-02T10:48:31;98080.49;;;9.81;67.94
84271;BME280;74614;50.032;19.566;2024-03-02T10:50:33;98076.16;;;9.83;67.86
84271;BME280;74614;50.032;19.566;2024-03-02T10:52:31;98074.16;;;9.88;67.93
84271;BME280;74614;50.032;19.566;2024-03-02T10:54:36;98077.65;;;9.91;67.87
84271;BME280;74614;50.032;19.566;2024-03-02T10:57:33;98069.09;;;9.95;68.00
84271;BME280;74614;50.032;19.566;2024-03-02T10:59:34;98073.50;;;9.94;68.53
84271;BME280;74614;50.032;19.566;2024-03-02T11:01:31;98071.90;;;10.03;68.21
84271;BME280;74614;50.032;19.566;2024-03-02T11:03:36;98068.05;;;10.09;67.81
84271;BME280;74614;50.032;19.566;2024-03-02T11:06:28;98075.13;;;9.95;67.87
84271;BME280;74614;50.032;19.566;2024-03-02T11:08:34;98074.28;;;9.94;68.09
84271;BME280;74614;50.032;19.566;2024-03-02T11:11:29;98072.21;;;9.90;67.80
84271;BME280;74614;50.032;19.566;2024-03-02T11:14:32;98067.19;;;9.83;68.16